createdAt,value
2022-09-01T00:01:44.865Z,81.34
2022-09-01T00:04:16.121Z,81.22
2022-09-01T00:06:46.101Z,81.34
2022-09-01T00:09:17.720Z,81.50
2022-09-01T00:11:50.884Z,81.27
2022-09-01T00:14:28.646Z,81.27
2022-09-01T00:16:59.424Z,81.28
2022-09-01T00:19:29.653Z,81.46
2022-09-01T00:21:58.604Z,81.62
2022-09-01T00:24:29.191Z,81.83
2022-09-01T00:26:58.339Z,81.64
2022-09-01T00:29:27.736Z,81.67
2022-09-01T00:31:56.376Z,81.40
2022-09-01T00:34:24.936Z,81.79
2022-09-01T00:36:53.415Z,81.71
2022-09-01T00:39:21.964Z,81.75
2022-09-01T00:41:52.083Z,81.93
2022-09-01T00:44:24.368Z,81.90
2022-09-01T00:46:55.975Z,81.89
2022-09-01T00:49:30.110Z,81.92
2022-09-01T00:52:05.213Z,82.02
2022-09-01T00:54:38.109Z,82.20
2022-09-01T00:57:11.660Z,82.20
2022-09-01T00:59:46.562Z,82.21
2022-09-01T01:02:15.792Z,82.13
2022-09-01T01:04:46.333Z,82.09
2022-09-01T01:07:16.027Z,82.10
2022-09-01T01:09:47.141Z,82.36
2022-09-01T01:12:18.146Z,82.58
2022-09-01T01:14:50.694Z,82.83
2022-09-01T01:17:19.712Z,83.28
2022-09-01T01:20:08.757Z,83.42
2022-09-01T01:23:05.311Z,83.03
2022-09-01T01:25:38.417Z,83.18
2022-09-01T01:28:10.163Z,83.33
2022-09-01T01:30:43.075Z,83.13
2022-09-01T01:33:11.881Z,83.12
2022-09-01T01:35:41.981Z,83.00
2022-09-01T01:38:11.202Z,82.95
2022-09-01T01:40:41.563Z,82.52
2022-09-01T01:43:12.177Z,82.47
2022-09-01T01:45:40.670Z,82.33
2022-09-01T01:48:10.656Z,82.35
2022-09-01T01:50:39.119Z,82.34
2022-09-01T01:53:13.807Z,82.27
2022-09-01T01:55:44.121Z,82.22
2022-09-01T01:58:15.111Z,82.39
2022-09-01T02:00:46.083Z,82.42
2022-09-01T02:03:19.025Z,82.33
2022-09-01T02:05:48.782Z,82.25
2022-09-01T02:08:21.086Z,82.39
2022-09-01T02:10:52.815Z,82.22
2022-09-01T02:13:26.614Z,82.11
2022-09-01T02:15:58.855Z,82.19
2022-09-01T02:18:31.083Z,82.06
2022-09-01T02:21:00.947Z,82.11
2022-09-01T02:23:31.096Z,82.03
2022-09-01T02:26:18.020Z,81.93
2022-09-01T02:28:54.217Z,82.08
2022-09-01T02:31:24.420Z,82.13
2022-09-01T02:33:54.517Z,82.46
2022-09-01T02:36:25.376Z,82.98
2022-09-01T02:38:56.563Z,83.03
2022-09-01T02:41:29.149Z,83.35
2022-09-01T02:44:02.515Z,83.43
2022-09-01T02:46:34.683Z,83.57
2022-09-01T02:49:05.535Z,83.54
2022-09-01T02:51:34.589Z,83.63
2022-09-01T02:54:03.064Z,83.60
2022-09-01T02:56:33.065Z,83.37
2022-09-01T02:59:03.121Z,83.26
2022-09-01T03:01:33.458Z,82.97
2022-09-01T03:04:09.831Z,82.80
2022-09-01T03:06:40.355Z,82.72
2022-09-01T03:09:11.337Z,82.60
2022-09-01T03:11:46.743Z,82.21
2022-09-01T03:14:15.328Z,82.15
2022-09-01T03:16:44.357Z,82.07
2022-09-01T03:19:15.149Z,82.04
2022-09-01T03:21:45.367Z,81.99
2022-09-01T03:24:17.871Z,82.14
2022-09-01T03:26:49.849Z,82.12
2022-09-01T03:29:18.872Z,82.04
2022-09-01T03:31:47.784Z,81.93
2022-09-01T03:34:21.710Z,82.07
2022-09-01T03:36:51.237Z,81.91
2022-09-01T03:39:20.116Z,82.36
2022-09-01T03:41:49.917Z,82.10
2022-09-01T03:44:18.943Z,82.30
2022-09-01T03:46:47.627Z,82.50
2022-09-01T03:49:16.978Z,82.00
2022-09-01T03:51:46.184Z,82.00
2022-09-01T03:54:14.985Z,82.01
2022-09-01T03:56:43.866Z,81.85
2022-09-01T03:59:17.066Z,81.72
2022-09-01T04:01:45.903Z,81.64
2022-09-01T04:04:15.356Z,81.92
2022-09-01T04:06:44.687Z,81.69
2022-09-01T04:09:13.956Z,81.66
2022-09-01T04:11:47.064Z,81.55
2022-09-01T04:14:17.473Z,81.46
2022-09-01T04:17:04.115Z,81.38
2022-09-01T04:19:36.980Z,81.98
2022-09-01T04:22:07.985Z,81.54
2022-09-01T04:24:36.555Z,81.65
2022-09-01T04:27:07.623Z,81.60
2022-09-01T04:29:37.495Z,81.61
2022-09-01T04:32:09.820Z,81.42
2022-09-01T04:34:40.407Z,81.25
2022-09-01T04:37:12.993Z,80.99
2022-09-01T04:39:51.284Z,81.09
2022-09-01T04:42:23.974Z,80.88
2022-09-01T04:44:54.738Z,81.41
2022-09-01T04:47:30.175Z,81.58
2022-09-01T04:50:13.804Z,81.88
2022-09-01T04:52:43.668Z,82.16
2022-09-01T04:55:17.714Z,82.01
2022-09-01T04:57:49.358Z,81.97
2022-09-01T05:00:24.923Z,82.03
2022-09-01T05:02:55.691Z,81.75
2022-09-01T05:05:25.028Z,82.05
2022-09-01T05:07:55.691Z,81.94
2022-09-01T05:10:29.982Z,82.22
2022-09-01T05:12:58.631Z,82.36
2022-09-01T05:15:31.026Z,82.29
2022-09-01T05:18:02.343Z,82.18
2022-09-01T05:20:32.092Z,82.05
2022-09-01T05:23:02.392Z,82.20
2022-09-01T05:25:30.855Z,81.94
2022-09-01T05:27:59.316Z,81.97
2022-09-01T05:30:29.308Z,81.97
2022-09-01T05:32:57.923Z,81.65
2022-09-01T05:35:32.528Z,81.55
2022-09-01T05:38:02.538Z,81.20
2022-09-01T05:40:31.061Z,80.89
2022-09-01T05:43:00.897Z,81.10
2022-09-01T05:45:44.767Z,80.97
2022-09-01T05:48:21.875Z,81.18
2022-09-01T05:50:52.722Z,80.94
2022-09-01T05:53:21.700Z,81.36
2022-09-01T05:55:52.736Z,81.67
2022-09-01T05:58:21.702Z,81.66
2022-09-01T06:00:53.481Z,81.73
2022-09-01T06:03:25.004Z,81.66
2022-09-01T06:05:54.074Z,81.24
2022-09-01T06:08:25.284Z,81.34
2022-09-01T06:10:54.609Z,81.67
2022-09-01T06:13:25.694Z,81.55
2022-09-01T06:15:58.340Z,81.33
2022-09-01T06:18:27.775Z,81.40
2022-09-01T06:20:56.502Z,81.31
2022-09-01T06:23:24.920Z,81.25
2022-09-01T06:25:53.651Z,81.21
2022-09-01T06:28:24.088Z,81.44
2022-09-01T06:30:53.711Z,81.88
2022-09-01T06:33:25.796Z,82.27
2022-09-01T06:35:55.994Z,82.37
2022-09-01T06:38:25.355Z,82.28
2022-09-01T06:41:01.844Z,81.92
2022-09-01T06:43:30.814Z,81.52
2022-09-01T06:46:02.926Z,81.35
2022-09-01T06:48:32.764Z,81.28
2022-09-01T06:51:20.938Z,81.55
2022-09-01T06:53:56.608Z,81.90
2022-09-01T06:56:29.159Z,81.89
2022-09-01T06:59:05.827Z,82.03
2022-09-01T07:01:35.607Z,81.97
2022-09-01T07:04:12.885Z,82.02
2022-09-01T07:09:47.177Z,81.90
2022-09-01T07:12:27.846Z,82.04
2022-09-01T07:17:50.269Z,81.91
2022-09-01T07:20:24.005Z,81.92
2022-09-01T07:23:09.708Z,81.88
2022-09-01T07:26:01.010Z,81.92
2022-09-01T07:39:55.801Z,80.53
2022-09-01T07:42:30.582Z,82.02
2022-09-01T07:45:31.601Z,80.50
2022-09-01T07:48:03.134Z,80.21
2022-09-01T07:51:07.537Z,79.84
2022-09-01T07:53:25.295Z,79.53
2022-09-01T07:55:56.311Z,79.42
2022-09-01T07:58:27.227Z,79.50
2022-09-01T08:01:02.797Z,79.21
2022-09-01T08:03:31.812Z,79.81
2022-09-01T08:06:06.476Z,79.53
2022-09-01T08:08:37.572Z,79.18
2022-09-01T08:11:06.944Z,78.91
2022-09-01T08:13:41.653Z,78.85
2022-09-01T08:16:19.112Z,78.79
2022-09-01T08:18:49.648Z,78.68
2022-09-01T08:21:22.028Z,78.49
2022-09-01T08:23:54.113Z,78.67
2022-09-01T08:26:25.255Z,78.36
2022-09-01T08:28:56.992Z,77.92
2022-09-01T08:31:30.623Z,77.74
2022-09-01T08:34:00.245Z,77.77
2022-09-01T08:36:28.805Z,77.73
2022-09-01T08:38:59.200Z,77.76
2022-09-01T08:41:41.387Z,78.01
2022-09-01T08:44:28.568Z,77.78
2022-09-01T08:47:02.589Z,77.82
2022-09-01T08:49:43.014Z,77.79
2022-09-01T08:52:20.881Z,77.85
2022-09-01T08:54:54.882Z,77.55
2022-09-01T08:57:27.676Z,77.13
2022-09-01T08:59:56.785Z,76.64
2022-09-01T09:02:37.929Z,76.42
2022-09-01T09:05:16.390Z,76.59
2022-09-01T09:08:07.684Z,76.31
2022-09-01T09:10:49.557Z,76.38
2022-09-01T09:13:25.946Z,76.45
2022-09-01T09:16:07.741Z,76.37
2022-09-01T09:18:59.812Z,76.00
2022-09-01T09:21:33.584Z,75.63
2022-09-01T09:24:10.942Z,75.06
2022-09-01T09:26:44.756Z,74.80
2022-09-01T09:29:13.427Z,74.64
2022-09-01T09:31:50.048Z,74.48
2022-09-01T09:34:36.036Z,74.53
2022-09-01T09:37:22.072Z,73.88
2022-09-01T09:40:15.990Z,73.43
2022-09-01T09:43:05.534Z,73.15
2022-09-01T09:45:37.992Z,73.34
2022-09-01T09:48:11.139Z,73.35
2022-09-01T09:50:42.045Z,73.33
2022-09-01T09:53:16.837Z,73.03
2022-09-01T09:56:10.873Z,72.41
2022-09-01T09:58:43.113Z,72.50
2022-09-01T10:01:17.295Z,72.00
2022-09-01T10:03:49.113Z,71.54
2022-09-01T10:06:33.181Z,70.72
2022-09-01T10:09:03.965Z,70.91
2022-09-01T10:11:41.627Z,70.40
2022-09-01T10:14:47.675Z,69.41
2022-09-01T10:17:13.322Z,69.62
2022-09-01T10:19:52.159Z,69.27
2022-09-01T10:22:21.491Z,68.94
2022-09-01T10:24:50.782Z,68.20
2022-09-01T10:27:23.364Z,68.14
2022-09-01T10:30:18.394Z,68.20
2022-09-01T10:32:55.297Z,68.33
2022-09-01T10:35:28.387Z,68.44
2022-09-01T10:37:59.538Z,67.83
2022-09-01T10:40:49.294Z,66.75
2022-09-01T10:43:41.727Z,66.38
2022-09-01T10:46:50.969Z,66.49
2022-09-01T10:49:52.022Z,67.29
2022-09-01T10:52:57.975Z,67.06
2022-09-01T10:55:30.017Z,67.53
2022-09-01T11:01:11.049Z,67.59
2022-09-01T11:03:56.505Z,66.83
2022-09-01T11:07:14.507Z,65.98
2022-09-01T11:09:44.912Z,65.97
2022-09-01T11:12:39.614Z,64.40
2022-09-01T11:15:37.018Z,64.04
2022-09-01T11:18:11.832Z,64.09
2022-09-01T11:20:45.584Z,63.56
2022-09-01T11:23:23.853Z,63.08
2022-09-01T11:28:44.154Z,62.94
2022-09-01T11:31:20.415Z,62.56
2022-09-01T11:34:00.816Z,62.23
2022-09-01T11:36:35.337Z,62.02
2022-09-01T11:39:08.472Z,61.75
2022-09-01T11:41:55.840Z,60.80
2022-09-01T11:44:28.981Z,60.95
2022-09-01T11:47:04.651Z,60.69
2022-09-01T11:49:36.079Z,60.33
2022-09-01T11:52:06.879Z,60.16
2022-09-01T11:54:42.585Z,59.67
2022-09-01T11:57:23.679Z,59.34
2022-09-01T11:59:53.110Z,59.69
2022-09-01T12:02:25.440Z,59.23
2022-09-01T12:04:56.285Z,58.85
2022-09-01T12:07:31.457Z,58.66
2022-09-01T12:10:00.031Z,58.71
2022-09-01T12:12:33.340Z,57.86
2022-09-01T12:15:07.570Z,57.16
2022-09-01T12:17:36.821Z,56.56
2022-09-01T12:20:26.722Z,55.34
2022-09-01T12:23:00.299Z,56.02
2022-09-01T12:25:31.728Z,55.11
2022-09-01T12:28:02.485Z,54.94
2022-09-01T12:30:35.304Z,55.00
2022-09-01T12:33:23.539Z,54.87
2022-09-01T12:35:56.083Z,55.42
2022-09-01T12:38:31.703Z,55.41
2022-09-01T12:41:00.544Z,55.30
2022-09-01T12:43:32.183Z,55.57
2022-09-01T12:46:02.944Z,55.24
2022-09-01T12:48:35.225Z,55.10
2022-09-01T12:51:24.519Z,54.29
2022-09-01T12:53:59.575Z,53.78
2022-09-01T12:56:32.057Z,53.44
2022-09-01T12:59:14.275Z,52.58
2022-09-01T13:01:45.070Z,52.75
2022-09-01T13:04:30.090Z,51.67
2022-09-01T13:07:04.179Z,51.76
2022-09-01T13:09:35.163Z,51.48
2022-09-01T13:12:19.702Z,50.53
2022-09-01T13:14:48.681Z,51.05
2022-09-01T13:17:17.706Z,51.15
2022-09-01T13:19:46.215Z,50.81
2022-09-01T13:22:14.699Z,50.53
2022-09-01T13:24:44.637Z,50.66
2022-09-01T13:27:22.529Z,51.09
2022-09-01T13:29:52.036Z,50.47
2022-09-01T13:32:22.346Z,50.39
2022-09-01T13:34:52.619Z,49.97
2022-09-01T13:37:22.696Z,49.64
2022-09-01T13:39:52.824Z,49.45
2022-09-01T13:42:21.298Z,49.18
2022-09-01T13:44:54.103Z,49.57
2022-09-01T13:47:31.806Z,49.37
2022-09-01T13:50:06.875Z,48.87
2022-09-01T13:52:36.180Z,48.81
2022-09-01T13:55:07.581Z,48.68
2022-09-01T13:57:36.840Z,48.44
2022-09-01T14:00:09.083Z,48.96
2022-09-01T14:02:37.959Z,49.05
2022-09-01T14:05:07.079Z,48.88
2022-09-01T14:07:35.731Z,48.95
2022-09-01T14:10:08.913Z,49.54
2022-09-01T14:12:37.563Z,49.20
2022-09-01T14:15:12.975Z,49.53
2022-09-01T14:17:43.899Z,49.22
2022-09-01T14:20:16.041Z,49.44
2022-09-01T14:22:45.364Z,49.50
2022-09-01T14:25:16.499Z,48.91
2022-09-01T14:27:45.495Z,48.92
2022-09-01T14:30:17.304Z,49.00
2022-09-01T14:32:45.851Z,49.05
2022-09-01T14:35:14.883Z,48.88
2022-09-01T14:37:44.076Z,48.79
2022-09-01T14:40:17.300Z,48.98
2022-09-01T14:42:51.582Z,49.39
2022-09-01T14:45:22.017Z,49.48
2022-09-01T14:47:54.005Z,49.36
2022-09-01T14:50:24.128Z,49.15
2022-09-01T14:52:55.767Z,48.94
2022-09-01T14:55:25.518Z,49.28
2022-09-01T14:57:55.420Z,49.25
2022-09-01T15:00:26.125Z,49.09
2022-09-01T15:02:55.824Z,48.75
2022-09-01T15:05:25.193Z,48.81
2022-09-01T15:07:54.500Z,48.24
2022-09-01T15:10:25.966Z,48.13
2022-09-01T15:12:58.515Z,47.64
2022-09-01T15:15:28.740Z,47.30
2022-09-01T15:17:57.970Z,47.33
2022-09-01T15:20:44.984Z,47.43
2022-09-01T15:23:16.365Z,47.22
2022-09-01T15:25:44.878Z,47.00
2022-09-01T15:28:15.421Z,47.18
2022-09-01T15:30:45.560Z,47.01
2022-09-01T15:33:16.292Z,46.61
2022-09-01T15:35:45.696Z,46.43
2022-09-01T15:38:17.507Z,46.30
2022-09-01T15:40:57.193Z,46.51
2022-09-01T15:43:29.468Z,46.28
2022-09-01T15:45:59.537Z,46.37
2022-09-01T15:48:28.963Z,46.57
2022-09-01T15:51:18.253Z,46.61
2022-09-01T15:53:46.930Z,46.85
2022-09-01T15:56:18.123Z,47.19
2022-09-01T15:59:00.771Z,47.06
2022-09-01T16:01:33.652Z,47.19
2022-09-01T16:04:02.357Z,47.26
2022-09-01T16:06:31.013Z,47.63
2022-09-01T16:08:59.491Z,47.67
2022-09-01T16:11:28.433Z,47.72
2022-09-01T16:13:58.684Z,47.65
2022-09-01T16:16:40.142Z,47.55
2022-09-01T16:19:21.889Z,47.43
2022-09-01T16:21:55.414Z,47.65
2022-09-01T16:24:25.261Z,47.66
2022-09-01T16:26:53.913Z,47.46
2022-09-01T16:29:34.843Z,47.30
2022-09-01T16:32:04.516Z,47.20
2022-09-01T16:34:34.837Z,46.95
2022-09-01T16:37:09.982Z,46.92
2022-09-01T16:39:47.239Z,46.96
2022-09-01T16:42:27.245Z,47.13
2022-09-01T16:45:05.893Z,47.29
2022-09-01T16:47:51.232Z,47.35
2022-09-01T16:50:28.595Z,47.42
2022-09-01T16:53:11.045Z,47.52
2022-09-01T16:55:49.548Z,47.72
2022-09-01T16:58:23.251Z,47.88
2022-09-01T17:01:04.264Z,47.96
2022-09-01T17:03:42.791Z,47.78
2022-09-01T17:06:18.860Z,47.82
2022-09-01T17:08:54.925Z,47.89
2022-09-01T17:11:34.501Z,47.87
2022-09-01T17:14:04.317Z,47.96
2022-09-01T17:16:39.953Z,48.18
2022-09-01T17:19:12.970Z,48.10
2022-09-01T17:21:46.095Z,48.30
2022-09-01T17:24:28.409Z,48.44
2022-09-01T17:27:02.513Z,48.48
2022-09-01T17:29:35.273Z,48.73
2022-09-01T17:32:14.577Z,48.85
2022-09-01T17:34:49.922Z,49.19
2022-09-01T17:37:32.443Z,49.37
2022-09-01T17:40:11.590Z,49.61
2022-09-01T17:42:46.212Z,49.60
2022-09-01T17:45:25.167Z,49.83
2022-09-01T17:48:04.232Z,50.24
2022-09-01T17:53:30.807Z,50.59
2022-09-01T17:56:04.421Z,50.29
2022-09-01T17:58:48.740Z,50.63
2022-09-01T18:01:25.414Z,50.92
2022-09-01T18:04:13.776Z,51.08
2022-09-01T18:06:52.077Z,51.08
2022-09-01T18:09:25.357Z,51.19
2022-09-01T18:12:00.847Z,51.26
2022-09-01T18:14:36.850Z,51.28
2022-09-01T18:17:10.686Z,51.67
2022-09-01T18:19:44.150Z,51.79
2022-09-01T18:22:17.601Z,51.76
2022-09-01T18:24:54.628Z,52.04
2022-09-01T18:27:24.397Z,52.02
2022-09-01T18:29:54.292Z,52.32
2022-09-01T18:32:35.192Z,52.63
2022-09-01T18:35:28.244Z,52.95
2022-09-01T18:38:18.720Z,53.05
2022-09-01T18:41:20.701Z,52.81
2022-09-01T18:43:56.380Z,52.83
2022-09-01T18:46:33.001Z,52.91
2022-09-01T18:49:15.763Z,52.92
2022-09-01T18:52:01.439Z,53.19
2022-09-01T18:54:39.457Z,53.08
2022-09-01T18:57:11.725Z,53.48
2022-09-01T18:59:58.009Z,53.79
2022-09-01T19:02:39.974Z,53.94
2022-09-01T19:05:17.924Z,54.04
2022-09-01T19:07:57.389Z,54.32
2022-09-01T19:10:30.135Z,54.18
2022-09-01T19:13:06.557Z,54.51
2022-09-01T19:15:42.848Z,54.78
2022-09-01T19:18:24.824Z,54.95
2022-09-01T19:20:57.921Z,55.04
2022-09-01T19:23:38.392Z,55.24
2022-09-01T19:26:11.456Z,55.43
2022-09-01T19:28:47.673Z,55.56
2022-09-01T19:31:24.003Z,55.70
2022-09-01T19:33:56.385Z,55.61
2022-09-01T19:36:31.098Z,55.72
2022-09-01T19:39:01.352Z,55.97
2022-09-01T19:41:35.390Z,56.09
2022-09-01T19:44:13.187Z,56.20
2022-09-01T19:46:47.131Z,56.29
2022-09-01T19:49:27.279Z,56.51
2022-09-01T19:52:04.862Z,56.47
2022-09-01T19:54:45.334Z,56.83
2022-09-01T19:57:21.079Z,56.97
2022-09-01T19:59:57.445Z,57.20
2022-09-01T20:02:31.319Z,57.19
2022-09-01T20:05:09.166Z,57.47
2022-09-01T20:07:44.073Z,57.58
2022-09-01T20:10:55.311Z,57.93
2022-09-01T20:13:54.831Z,58.11
2022-09-01T20:16:31.291Z,57.83
2022-09-01T20:19:06.331Z,58.01
2022-09-01T20:21:40.297Z,57.93
2022-09-01T20:24:15.515Z,58.14
2022-09-01T20:26:50.515Z,58.23
2022-09-01T20:29:25.656Z,58.57
2022-09-01T20:31:58.412Z,58.95
2022-09-01T20:34:33.841Z,59.77
2022-09-01T20:37:07.351Z,60.24
2022-09-01T20:39:59.859Z,60.61
2022-09-01T20:42:38.388Z,60.57
2022-09-01T20:45:13.709Z,60.45
2022-09-01T20:47:43.192Z,60.68
2022-09-01T20:50:14.959Z,61.10
2022-09-01T20:53:00.289Z,61.44
2022-09-01T20:55:33.764Z,61.53
2022-09-01T20:58:11.131Z,61.92
2022-09-01T21:00:48.724Z,61.85
2022-09-01T21:03:33.961Z,61.39
2022-09-01T21:06:17.015Z,61.89
2022-09-01T21:08:49.967Z,62.04
2022-09-01T21:11:31.378Z,62.58
2022-09-01T21:14:14.400Z,62.58
2022-09-01T21:16:53.368Z,62.37
2022-09-01T21:19:29.129Z,62.42
2022-09-01T21:22:05.176Z,62.64
2022-09-01T21:24:33.919Z,62.83
2022-09-01T21:27:07.336Z,63.16
2022-09-01T21:29:49.789Z,63.75
2022-09-01T21:32:18.604Z,63.56
2022-09-01T21:34:48.570Z,63.23
2022-09-01T21:37:17.899Z,63.34
2022-09-01T21:39:47.029Z,63.16
2022-09-01T21:42:15.669Z,63.44
2022-09-01T21:44:45.904Z,63.35
2022-09-01T21:47:15.195Z,63.29
2022-09-01T21:49:43.799Z,63.22
2022-09-01T21:52:12.458Z,63.13
2022-09-01T21:54:41.175Z,63.19
2022-09-01T21:57:09.904Z,63.37
2022-09-01T21:59:38.724Z,63.19
2022-09-01T22:02:08.625Z,63.58
2022-09-01T22:04:38.436Z,63.75
2022-09-01T22:07:21.121Z,64.06
2022-09-01T22:09:50.243Z,64.61
2022-09-01T22:12:18.791Z,64.75
2022-09-01T22:14:47.345Z,64.70
2022-09-01T22:17:17.187Z,64.82
2022-09-01T22:19:45.683Z,64.98
2022-09-01T22:22:14.923Z,65.20
2022-09-01T22:24:43.508Z,65.33
2022-09-01T22:27:11.959Z,65.32
2022-09-01T22:29:40.562Z,65.64
2022-09-01T22:32:09.105Z,65.53
2022-09-01T22:34:39.341Z,65.03
2022-09-01T22:37:12.426Z,65.31
2022-09-01T22:39:40.903Z,65.13
2022-09-01T22:42:09.327Z,65.00
2022-09-01T22:44:37.915Z,65.06
2022-09-01T22:47:07.181Z,64.98
2022-09-01T22:49:35.599Z,65.10
2022-09-01T22:52:05.758Z,65.12
2022-09-01T22:54:34.299Z,65.28
2022-09-01T22:57:03.136Z,65.61
2022-09-01T22:59:31.719Z,65.72
2022-09-01T23:02:01.796Z,65.80
2022-09-01T23:04:32.137Z,65.66
2022-09-01T23:07:00.673Z,65.74
2022-09-01T23:09:30.536Z,66.20
2022-09-01T23:11:59.048Z,66.34
2022-09-01T23:14:28.528Z,66.22
2022-09-01T23:16:57.080Z,66.13
2022-09-01T23:19:25.488Z,66.20
2022-09-01T23:21:53.956Z,66.17
2022-09-01T23:24:22.858Z,66.35
2022-09-01T23:26:52.631Z,66.35
2022-09-01T23:29:21.157Z,66.53
2022-09-01T23:31:49.677Z,66.40
2022-09-01T23:34:18.131Z,66.91
2022-09-01T23:36:48.343Z,66.87
2022-09-01T23:39:16.851Z,66.78
2022-09-01T23:41:46.928Z,67.16
2022-09-01T23:44:17.055Z,67.25
2022-09-01T23:46:47.375Z,66.67
2022-09-01T23:49:17.780Z,66.80
2022-09-01T23:51:47.055Z,66.55
2022-09-01T23:54:16.048Z,66.51
2022-09-01T23:56:44.533Z,66.83
2022-09-01T23:59:13.220Z,66.63
